Aviation Digital Data Service (ADDS)

Output produced by METARs form (0033 UTC 17 July 2019)
found at http://www.aviationweather.gov/metar/data/
 
Forecast for: KELP (EL PASO , TX, US)
Text: KELP 162326Z 1700/1724 34012G20KT P6SM VCTS SCT120CB BKN250
Forecast period: 0000 to 0400 UTC 17 July 2019
Forecast type: FROM: standard forecast or significant change
Winds: from the NNW (340 degrees) at 14 MPH (12 knots; 6.2 m/s)
gusting to 23 MPH (20 knots; 10.3 m/s)
Visibility: 6 or more miles 10+ km)
Ceiling: 25000 feet AGL
Clouds: scattered clouds at 12000 feet AGL
broken clouds at 25000 feet AGL
Weather: VCTS  (thunderstorm in vicinity)
Text: FM170400 31010KT P6SM SCT100 BKN250
Forecast period: 0400 to 1300 UTC 17 July 2019
Forecast type: FROM: standard forecast or significant change
Winds: from the NW (310 degrees) at 12 MPH (10 knots; 5.1 m/s)
Visibility: 6 or more miles 10+ km)
Ceiling: 25000 feet AGL
Clouds: scattered clouds at 10000 feet AGL
broken clouds at 25000 feet AGL
Weather: no significant weather forecast for this period
Text: FM171300 24006KT P6SM FEW100 SCT250
Forecast period: 1300 UTC 17 July 2019 to 0000 UTC 18 July 2019
Forecast type: FROM: standard forecast or significant change
Winds: from the WSW (240 degrees) at 7 MPH (6 knots; 3.1 m/s)
Visibility: 6 or more miles 10+ km)
Ceiling: at least 12,000 feet AGL
Clouds: few clouds at 10000 feet AGL
scattered clouds at 25000 feet AGL
Weather: no significant weather forecast for this period